Time;durP1;ratioP1;P1;durP2;ratioP2;P2;SDS_P1;SDS_P2;PMS_P1;PMS_P2;Temp;Humidity;BMP_temperature;BMP_pressure;BME280_temperature;BME280_humidity;BME280_pressure;Samples;Min_cycle;Max_cycle;Signal;HPM_P1;HPM_P2
2021/05/06 00:34:25;;;;;;;6.03;1.80;;;;;;;18.88;31.44;99923.91;1782188;80;21135;-77
2021/05/06 00:36:52;;;;;;;3.77;1.70;;;;;;;18.81;31.45;99917.73;1782388;80;21143;-77
2021/05/06 00:39:24;;;;;;;2.00;1.50;;;;;;;18.75;31.67;99912.66;1782210;80;21091;-77
2021/05/06 01:05:39;;;;;;;2.55;1.80;;;;;;;18.42;32.62;99906.19;1782361;80;21561;-77
2021/05/06 01:08:15;;;;;;;2.95;1.52;;;;;;;18.39;32.70;99892.53;1781206;80;21186;-77
2021/05/06 01:13:06;;;;;;;2.52;1.82;;;;;;;18.32;33.16;99897.20;1782186;80;21115;-77
2021/05/06 01:15:33;;;;;;;3.17;1.40;;;;;;;18.29;33.28;99896.28;1782240;80;21151;-77
2021/05/06 01:18:19;;;;;;;3.30;1.95;;;;;;;18.29;33.51;99891.39;1782072;80;21092;-77
2021/05/06 01:20:51;;;;;;;3.45;1.45;;;;;;;18.27;33.57;99889.44;1782144;80;21083;-78
2021/05/06 01:23:18;;;;;;;3.52;1.70;;;;;;;18.23;33.75;99887.69;1782346;80;21072;-77
2021/05/06 01:26:05;;;;;;;5.78;1.62;;;;;;;18.23;33.93;99894.47;1782259;80;21139;-77
2021/05/06 01:28:37;;;;;;;1.70;1.55;;;;;;;18.22;34.02;99887.39;1782006;80;21087;-77
2021/05/06 01:31:05;;;;;;;4.55;1.80;;;;;;;18.28;34.02;99882.43;1780941;79;21095;-77
2021/05/06 01:44:03;;;;;;;2.30;1.70;;;;;;;18.27;35.14;99867.22;1751911;80;21135;-78
2021/05/06 01:59:51;;;;;;;1.90;1.65;;;;;;;18.07;37.03;99857.89;1782026;80;21099;-78
2021/05/06 02:02:17;;;;;;;3.62;1.62;;;;;;;17.99;37.17;99847.36;1782009;80;21134;-78
2021/05/06 02:04:45;;;;;;;4.50;2.00;;;;;;;17.95;37.55;99843.43;1782156;80;21174;-77
2021/05/06 02:07:13;;;;;;;2.83;1.70;;;;;;;17.91;37.65;99843.56;1782202;80;21146;-78
2021/05/06 02:09:47;;;;;;;1.62;1.52;;;;;;;17.91;37.54;99843.56;1781210;80;21142;-77
2021/05/06 02:12:16;;;;;;;2.90;1.70;;;;;;;17.93;37.58;99850.94;1751563;80;21572;-78
2021/05/06 02:14:56;;;;;;;2.50;1.67;;;;;;;17.94;37.46;99853.94;1782152;80;21182;-77
2021/05/06 02:17:21;;;;;;;2.37;1.55;;;;;;;17.96;37.37;99846.44;1781900;80;21075;-78
2021/05/06 02:19:51;;;;;;;4.92;1.90;;;;;;;17.96;37.52;99853.21;1782079;80;21087;-78
2021/05/06 02:22:20;;;;;;;4.70;1.62;;;;;;;17.92;37.36;99836.55;1751489;80;21107;-78
2021/05/06 02:24:48;;;;;;;2.02;1.67;;;;;;;17.91;37.35;99853.05;1751532;80;21091;-77
2021/05/06 02:27:15;;;;;;;;;;;;;;;17.94;37.51;99849.88;1784718;80;21139;-77
2021/05/06 02:29:43;;;;;;;2.75;1.95;;;;;;;17.94;37.57;99839.89;1782145;79;20222;-78
2021/05/06 02:32:10;;;;;;;3.40;1.90;;;;;;;17.90;37.50;99833.78;1781974;80;21095;-77
2021/05/06 02:34:38;;;;;;;6.58;1.50;;;;;;;17.91;37.69;99832.73;1781917;80;21108;-77
2021/05/06 02:37:05;;;;;;;2.50;1.62;;;;;;;17.92;37.74;99832.49;1776544;80;21113;-77
2021/05/06 02:39:33;;;;;;;2.27;1.60;;;;;;;17.91;37.44;99836.27;1756347;81;21494;-77
2021/05/06 02:42:00;;;;;;;;;;;;;;;17.90;37.32;99826.48;1731921;83;21082;-77
2021/05/06 02:44:27;;;;;;;4.90;1.50;;;;;;;17.89;37.23;99825.33;1711275;83;20225;-77
2021/05/06 02:46:55;;;;;;;;;;;;;;;17.87;37.39;99830.98;1731998;83;21170;-77
2021/05/06 02:49:23;;;;;;;2.00;1.80;;;;;;;17.88;37.38;99825.86;1743338;82;20570;-77
2021/05/06 02:51:54;;;;;;;4.50;2.70;;;;;;;17.90;37.25;99828.36;1727699;82;21750;-77
2021/05/06 02:54:20;;;;;;;18.40;3.52;;;;;;;17.94;37.36;99826.34;1755185;81;21219;-78
2021/05/06 03:04:49;;;;;;;3.25;1.77;;;;;;;17.88;36.96;99827.21;1756058;81;21085;-77
2021/05/06 03:07:23;;;;;;;3.72;1.60;;;;;;;17.88;36.90;99823.15;1729211;83;21201;-77
2021/05/06 03:09:58;;;;;;;2.60;1.30;;;;;;;17.88;37.03;99827.21;1756136;81;21089;-76
2021/05/06 03:23:05;;;;;;;4.42;1.47;;;;;;;17.97;36.74;99838.61;1729526;83;21594;-77
2021/05/06 03:25:33;;;;;;;;;;;;;;;18.01;36.83;99841.17;1759722;81;21176;-77
2021/05/06 03:28:08;;;;;;;3.85;1.80;;;;;;;18.03;36.71;99829.58;1756482;81;20216;-77
2021/05/06 03:31:00;;;;;;;2.85;2.10;;;;;;;18.04;36.78;99831.78;1729466;82;21176;-78
2021/05/06 04:27:23;;;;;;;5.87;1.70;;;;;;;18.61;36.77;99833.27;1761567;81;21129;-78
2021/05/06 04:37:51;;;;;;;5.25;1.67;;;;;;;18.90;35.96;99820.05;1730760;80;21214;-78
2021/05/06 05:03:56;;;;;;;3.75;1.80;;;;;;;19.56;33.98;99841.37;1712126;81;21602;-78
2021/05/06 05:06:23;;;;;;;6.35;1.92;;;;;;;19.63;34.04;99844.32;1755682;79;21204;-77
2021/05/06 05:09:01;;;;;;;4.45;1.80;;;;;;;19.67;33.26;99850.95;1747774;80;21742;-79
2021/05/06 05:13:57;;;;;;;3.27;1.45;;;;;;;19.75;32.86;99851.13;1757231;81;21471;-78
2021/05/06 05:24:33;;;;;;;5.30;2.10;;;;;;;20.07;32.27;99836.69;1721267;80;21149;-77
2021/05/06 05:26:54;;;;;;;8.48;2.00;;;;;;;20.19;31.32;99853.02;1765468;79;21124;-77
2021/05/06 05:29:22;;;;;;;5.03;1.75;;;;;;;20.25;31.10;99842.02;1744884;80;21133;-78
2021/05/06 05:31:49;;;;;;;7.45;2.65;;;;;;;20.29;31.24;99849.17;1747692;80;21110;-78
2021/05/06 05:34:30;;;;;;;12.53;2.15;;;;;;;20.34;31.63;99833.50;1750800;81;21145;-79
2021/05/06 05:36:56;;;;;;;8.00;2.52;;;;;;;20.35;31.34;99822.91;1745601;81;21151;-77
2021/05/06 05:55:42;;;;;;;4.37;2.12;;;;;;;20.22;31.98;99824.83;1755000;80;21169;-77
2021/05/06 05:58:09;;;;;;;5.67;2.05;;;;;;;20.27;32.23;99820.05;1733516;81;21113;-78
2021/05/06 06:00:38;;;;;;;3.87;1.90;;;;;;;20.28;31.93;99833.39;1759201;79;21125;-79
2021/05/06 06:03:22;;;;;;;3.60;2.20;;;;;;;20.22;31.88;99831.63;1756926;79;21141;-79
2021/05/06 06:06:16;;;;;;;6.47;1.92;;;;;;;20.18;32.21;99816.84;1826470;76;24618;-76
2021/05/06 06:08:45;;;;;;;8.45;2.00;;;;;;;20.17;32.37;99809.77;1824678;77;21179;-78
2021/05/06 06:11:16;;;;;;;3.22;1.57;;;;;;;20.27;32.47;99814.06;1795961;77;21185;-78
2021/05/06 06:13:48;;;;;;;4.60;1.60;;;;;;;20.46;32.42;99792.99;1823776;77;21133;-76
2021/05/06 06:16:26;;;;;;;5.85;1.40;;;;;;;20.68;31.72;99838.12;1819091;77;20966;-77
2021/05/06 06:19:00;;;;;;;3.85;1.47;;;;;;;20.76;31.30;99813.27;1824456;77;21179;-77
2021/05/06 06:24:07;;;;;;;2.27;1.67;;;;;;;20.63;31.71;99809.45;1826536;76;21164;-77
2021/05/06 06:26:43;;;;;;;2.95;1.70;;;;;;;20.63;31.96;99807.26;1816145;77;22009;-78
2021/05/06 06:29:16;;;;;;;6.15;1.90;;;;;;;20.66;32.31;99796.70;1744532;78;21539;-78
2021/05/06 06:31:48;;;;;;;8.03;1.98;;;;;;;20.67;32.29;99809.27;1777137;77;21623;-77
2021/05/06 06:34:19;;;;;;;4.33;1.90;;;;;;;20.68;32.13;99807.36;1820178;76;21661;-78
2021/05/06 06:36:56;;;;;;;9.00;2.70;;;;;;;20.65;32.35;99804.58;1821069;76;21244;-79
2021/05/06 06:39:31;;;;;;;8.80;1.72;;;;;;;20.67;32.42;99814.70;1790679;77;21116;-77
2021/05/06 06:42:00;;;;;;;5.92;1.82;;;;;;;20.68;32.64;99807.36;1823406;76;21108;-78
2021/05/06 06:44:29;;;;;;;;;;;;;;;20.68;32.42;99818.25;1826208;77;21091;-78
2021/05/06 06:47:07;;;;;;;48.23;8.50;;;;;;;20.68;32.41;99831.86;1821652;77;20637;-77
2021/05/06 06:49:36;;;;;;;50.30;10.78;;;;;;;20.71;32.24;99840.37;1823963;76;21141;-77
2021/05/06 06:52:08;;;;;;;97.08;17.10;;;;;;;20.73;31.87;99829.23;1825548;76;21144;-77
2021/05/06 06:54:36;;;;;;;83.80;17.50;;;;;;;20.72;31.69;99835.75;1822015;77;21105;-78
2021/05/06 06:57:08;;;;;;;78.02;16.05;;;;;;;20.71;31.43;99834.93;1822740;77;21014;-78
2021/05/06 06:59:36;;;;;;;66.80;14.70;;;;;;;20.68;31.69;99841.37;1792097;77;21113;-78
2021/05/06 07:02:04;;;;;;;44.20;11.08;;;;;;;20.66;31.56;99847.05;1822201;77;21152;-80
2021/05/06 07:04:32;;;;;;;28.60;5.78;;;;;;;20.64;31.78;99853.27;1819823;77;21097;-76
2021/05/06 07:07:01;;;;;;;6.60;2.70;;;;;;;20.68;32.01;99864.52;1766221;77;21150;-78
2021/05/06 07:09:28;;;;;;;12.43;2.95;;;;;;;20.68;31.36;99866.70;1823622;77;21570;-77
2021/05/06 07:11:57;;;;;;;16.55;5.53;;;;;;;20.66;31.48;99862.55;1820104;77;21559;-77
2021/05/06 07:14:24;;;;;;;77.37;15.10;;;;;;;20.65;32.06;99872.61;1764817;79;21601;-77
2021/05/06 07:16:56;;;;;;;47.38;9.10;;;;;;;20.67;32.22;99886.81;1815074;76;21134;-78
2021/05/06 07:22:15;;;;;;;17.27;3.55;;;;;;;20.71;32.70;99877.11;1868394;74;22179;-77
2021/05/06 07:24:47;;;;;;;14.03;2.90;;;;;;;20.67;32.81;99888.18;1818460;75;21169;-79
2021/05/06 07:27:16;;;;;;;6.78;2.40;;;;;;;20.64;33.17;99895.45;1848934;75;21165;-78
2021/05/06 07:29:48;;;;;;;4.72;2.37;;;;;;;20.67;33.72;99905.05;1788273;78;22195;-78
2021/05/06 07:32:17;;;;;;;4.42;2.25;;;;;;;20.71;34.23;99908.92;1759063;79;21121;-77
2021/05/06 07:34:49;;;;;;;8.63;2.72;;;;;;;20.74;34.81;99901.64;1783387;78;21134;-78
2021/05/06 07:37:20;;;;;;;6.97;2.60;;;;;;;20.74;35.43;99905.19;1816855;77;20973;-79
2021/05/06 07:39:49;;;;;;;6.00;2.47;;;;;;;20.74;36.03;99902.47;1821081;77;21007;-79
2021/05/06 07:42:18;;;;;;;6.10;2.80;;;;;;;20.74;36.24;99903.83;1772479;79;21135;-77
2021/05/06 07:44:48;;;;;;;6.28;2.47;;;;;;;20.75;36.52;99923.17;1804408;78;21620;-77
2021/05/06 07:47:16;;;;;;;5.70;2.85;;;;;;;20.73;36.47;99918.52;1812110;77;21116;-77
2021/05/06 07:49:49;;;;;;;9.43;3.75;;;;;;;20.72;36.65;99918.23;1781508;79;21110;-77
2021/05/06 07:52:19;;;;;;;4.62;2.47;;;;;;;20.70;36.71;99925.78;1793839;78;21109;-79
2021/05/06 07:54:48;;;;;;;7.08;2.92;;;;;;;20.67;37.21;99933.08;1789458;78;21157;-78
2021/05/06 07:57:20;;;;;;;10.63;4.58;;;;;;;20.52;39.20;99930.81;1786658;78;21117;-76
2021/05/06 07:59:50;;;;;;;30.72;6.70;;;;;;;20.35;39.51;99932.56;1725048;79;21094;-77
2021/05/06 08:02:19;;;;;;;21.25;5.50;;;;;;;20.23;39.87;99939.34;1780985;79;21124;-77
2021/05/06 08:04:46;;;;;;;7.72;4.00;;;;;;;20.12;40.22;99921.62;1806084;77;21110;-77
2021/05/06 08:07:13;;;;;;;9.38;4.12;;;;;;;20.07;40.28;99916.89;1772458;78;21132;-79
2021/05/06 08:09:42;;;;;;;7.72;3.62;;;;;;;20.07;40.64;99929.12;1808029;77;21093;-79
2021/05/06 08:12:12;;;;;;;5.50;3.12;;;;;;;20.13;40.77;99924.14;1808739;77;21099;-79
2021/05/06 08:14:39;;;;;;;6.50;3.08;;;;;;;20.23;40.74;99943.95;1802724;77;21062;-76
2021/05/06 08:17:09;;;;;;;5.45;3.08;;;;;;;20.24;40.54;99938.27;1788169;79;21164;-77
2021/05/06 08:19:40;;;;;;;11.10;4.37;;;;;;;20.25;40.61;99929.04;1802550;77;21616;-78
2021/05/06 08:22:08;;;;;;;42.65;8.35;;;;;;;20.33;40.46;99928.41;1771613;78;21105;-77
2021/05/06 08:24:36;;;;;;;42.90;7.87;;;;;;;20.37;40.11;99947.28;1787535;78;21139;-77
2021/05/06 08:27:05;;;;;;;84.42;14.30;;;;;;;20.37;40.09;99948.64;1785409;78;21560;-76
2021/05/06 08:29:33;;;;;;;68.72;12.30;;;;;;;20.27;39.49;99940.53;1788382;78;21140;-77
2021/05/06 08:32:01;;;;;;;65.42;13.72;;;;;;;20.22;39.30;99943.13;1784414;78;21137;-76
2021/05/06 08:34:28;;;;;;;61.68;11.10;;;;;;;20.19;39.48;99953.11;1787955;79;21630;-78
2021/05/06 08:36:55;;;;;;;61.75;12.73;;;;;;;20.23;39.83;99961.63;1751289;78;21164;-77
2021/05/06 08:39:43;;;;;;;49.88;10.65;;;;;;;20.38;39.92;99953.02;1780731;79;21163;-76
2021/05/06 08:42:12;;;;;;;;;;;;;;;20.59;40.21;99966.09;1779508;78;22046;-76
2021/05/06 08:44:40;;;;;;;68.22;13.08;;;;;;;20.82;39.68;99964.44;1784346;78;20179;-77
2021/05/06 08:47:14;;;;;;;45.10;9.60;;;;;;;20.84;39.82;99955.48;1779650;78;21108;-78
2021/05/06 08:49:43;;;;;;;14.95;5.47;;;;;;;21.01;39.80;99965.41;1791571;78;21070;-80
2021/05/06 08:52:12;;;;;;;57.88;10.50;;;;;;;21.19;39.51;99964.44;1785742;78;21129;-78
2021/05/06 08:54:41;;;;;;;49.55;10.65;;;;;;;21.51;39.16;99966.22;1778393;78;21223;-78
2021/05/06 08:57:08;;;;;;;24.23;6.37;;;;;;;21.64;38.44;99978.74;1778908;79;21147;-77
2021/05/06 08:59:35;;;;;;;56.98;10.48;;;;;;;21.61;38.02;99967.49;1804463;78;21140;-78
2021/05/06 09:02:02;;;;;;;35.43;8.30;;;;;;;21.51;38.25;99973.57;1779511;79;21224;-79
2021/05/06 09:04:31;;;;;;;31.48;7.17;;;;;;;21.45;38.44;99969.09;1804723;77;21089;-79
2021/05/06 09:07:00;;;;;;;67.50;14.07;;;;;;;21.45;38.49;99975.91;1806682;77;21113;-79
2021/05/06 09:09:31;;;;;;;68.95;16.85;;;;;;;21.44;38.61;99975.09;1773139;78;21143;-79
2021/05/06 09:12:01;;;;;;;87.10;18.23;;;;;;;21.47;38.65;99966.95;1766698;77;21129;-79
2021/05/06 09:14:47;;;;;;;77.03;16.62;;;;;;;21.48;38.46;99983.58;1812259;77;21662;-78
2021/05/06 09:17:34;;;;;;;51.55;12.50;;;;;;;21.35;38.61;99980.63;1750723;79;21161;-79
2021/05/06 09:20:24;;;;;;;21.80;6.97;;;;;;;21.21;38.91;99984.61;1809346;77;21747;-78
2021/05/06 09:22:55;;;;;;;24.00;7.15;;;;;;;21.17;39.36;99991.09;1781667;79;21176;-79
2021/05/06 09:25:36;;;;;;;16.48;4.50;;;;;;;21.29;39.56;99989.16;1783733;78;21110;-79
2021/05/06 09:28:15;;;;;;;38.02;8.30;;;;;;;21.41;39.34;99974.73;1777554;78;21121;-78
2021/05/06 09:31:01;;;;;;;70.05;13.72;;;;;;;21.52;39.17;99980.67;1781310;79;21266;-78
2021/05/06 09:33:41;;;;;;;68.15;14.33;;;;;;;21.55;38.97;99978.02;1781820;79;21159;-78
2021/05/06 09:36:16;;;;;;;71.33;13.70;;;;;;;21.52;39.11;99977.94;1778431;78;21641;-79
2021/05/06 09:38:48;;;;;;;59.58;11.68;;;;;;;21.46;39.23;99974.84;1751334;78;21120;-78
2021/05/06 09:41:25;;;;;;;43.95;8.45;;;;;;;21.41;39.34;99979.64;1776196;78;21097;-79
2021/05/06 09:43:53;;;;;;;18.15;6.30;;;;;;;21.40;39.43;99985.34;1779559;79;21538;-78
2021/05/06 09:46:35;;;;;;;60.28;10.75;;;;;;;21.41;39.52;99984.27;1797052;78;21125;-79
2021/05/06 09:49:11;;;;;;;30.92;7.92;;;;;;;21.41;39.43;99982.91;1776346;78;21134;-79
2021/05/06 09:51:50;;;;;;;12.73;4.60;;;;;;;21.36;39.48;99988.25;1781729;79;21925;-79
2021/05/06 09:54:22;;;;;;;8.63;3.50;;;;;;;21.36;39.54;99987.72;1803343;77;21069;-78
2021/05/06 09:57:06;;;;;;;5.33;3.30;;;;;;;21.33;39.83;99991.45;1750060;79;21897;-78
2021/05/06 09:59:39;;;;;;;7.67;3.37;;;;;;;21.26;40.34;99999.73;1785352;78;21003;-78
2021/05/06 10:02:15;;;;;;;27.52;8.08;;;;;;;21.17;41.05;99998.45;1790087;78;21141;-78
2021/05/06 10:04:44;;;;;;;15.98;5.58;;;;;;;21.10;42.21;100010.81;1804271;77;21081;-78
2021/05/06 10:07:25;;;;;;;8.63;4.03;;;;;;;20.91;42.65;100016.09;1786589;78;21176;-79
2021/05/06 10:10:06;;;;;;;18.23;5.33;;;;;;;20.76;43.26;100016.03;1776207;79;21132;-79
2021/05/06 10:12:37;;;;;;;10.20;4.73;;;;;;;20.69;43.56;100028.09;1805020;77;21106;-79
2021/05/06 10:15:09;;;;;;;7.28;3.95;;;;;;;20.64;44.29;100032.88;1802865;77;21658;-79
2021/05/06 10:17:37;;;;;;;8.98;4.28;;;;;;;20.47;44.59;100035.94;1804689;77;21145;-79
2021/05/06 10:20:06;;;;;;;9.05;4.90;;;;;;;20.49;44.52;100031.14;1798229;77;21097;-79
2021/05/06 10:22:33;;;;;;;6.40;3.90;;;;;;;20.53;44.67;100029.62;1795200;78;21141;-78
2021/05/06 10:25:05;;;;;;;;;;;;;;;20.53;44.59;100024.17;1775983;79;22212;-78
2021/05/06 10:27:32;;;;;;;8.25;4.60;;;;;;;20.57;44.67;100019.89;1766040;79;20187;-78
2021/05/06 10:29:59;;;;;;;;;;;;;;;20.62;44.61;100024.13;1791326;78;21113;-78
2021/05/06 10:32:31;;;;;;;7.23;4.17;;;;;;;20.65;44.35;100022.28;1748225;80;20299;-78
2021/05/06 10:35:06;;;;;;;6.70;4.35;;;;;;;20.71;44.07;100028.67;1784002;78;21707;-78
2021/05/06 10:37:36;;;;;;;8.43;4.08;;;;;;;20.74;43.92;100026.31;1760850;79;21149;-78
2021/05/06 10:40:07;;;;;;;6.70;4.35;;;;;;;20.56;44.31;100030.48;1751544;79;21652;-77
2021/05/06 10:42:34;;;;;;;9.60;4.65;;;;;;;20.52;44.37;100036.09;1799039;78;20977;-78
2021/05/06 10:45:16;;;;;;;6.78;4.37;;;;;;;20.54;44.35;100039.44;1829766;76;20967;-79
2021/05/06 10:47:51;;;;;;;11.95;4.50;;;;;;;20.58;44.39;100033.82;1762790;79;20954;-78
2021/05/06 10:50:35;;;;;;;11.40;4.22;;;;;;;20.64;44.23;100027.43;1792074;78;21013;-78
2021/05/06 10:53:07;;;;;;;11.00;4.90;;;;;;;20.70;44.18;100027.02;1794785;78;21603;-79
2021/05/06 10:55:53;;;;;;;13.03;5.35;;;;;;;20.75;44.12;100027.14;1787116;78;21106;-77
2021/05/06 10:58:32;;;;;;;11.60;5.67;;;;;;;20.80;44.29;100035.42;1764805;77;21256;-78
2021/05/06 11:01:17;;;;;;;10.43;4.55;;;;;;;20.77;44.39;100037.27;1800855;78;21129;-78
2021/05/06 11:04:04;;;;;;;6.90;4.97;;;;;;;20.72;44.80;100044.78;1806519;77;20931;-79
2021/05/06 11:06:39;;;;;;;10.40;5.08;;;;;;;20.74;45.40;100038.56;1810852;77;21109;-78
2021/05/06 11:09:36;;;;;;;11.00;5.17;;;;;;;20.77;45.77;100044.08;1824647;76;21142;-78
2021/05/06 11:12:20;;;;;;;9.78;5.72;;;;;;;20.82;46.35;100042.84;1760428;77;21142;-78
2021/05/06 11:15:06;;;;;;;15.50;5.33;;;;;;;20.81;46.73;100045.80;1796322;78;20945;-78
2021/05/06 11:17:39;;;;;;;8.45;4.28;;;;;;;20.82;46.69;100040.65;1803282;78;21162;-77
2021/05/06 11:20:15;;;;;;;8.43;4.15;;;;;;;20.87;46.61;100040.77;1800903;77;21129;-78
2021/05/06 11:22:52;;;;;;;10.13;4.50;;;;;;;20.90;46.78;100046.58;1806639;77;21464;-79
2021/05/06 11:25:40;;;;;;;7.47;4.58;;;;;;;20.91;46.83;100056.39;1801350;75;21105;-79
2021/05/06 11:28:26;;;;;;;7.33;4.12;;;;;;;20.90;47.09;100052.56;1838467;76;21541;-78
2021/05/06 11:30:55;;;;;;;10.08;4.62;;;;;;;20.95;46.97;100052.67;1831663;76;21155;-78
2021/05/06 11:33:28;;;;;;;8.45;4.60;;;;;;;20.91;46.90;100061.02;1832575;76;21542;-78
2021/05/06 11:36:02;;;;;;;9.73;3.70;;;;;;;20.79;47.19;100059.62;1832608;76;20993;-78
2021/05/06 11:38:43;;;;;;;10.53;4.75;;;;;;;20.80;47.33;100060.45;1826720;76;21096;-78
2021/05/06 11:41:30;;;;;;;7.78;5.20;;;;;;;20.88;47.45;100060.11;1835980;76;21088;-78
2021/05/06 11:44:04;;;;;;;9.75;5.22;;;;;;;20.93;47.28;100062.42;1792662;77;21131;-77
2021/05/06 11:46:35;;;;;;;7.08;4.90;;;;;;;21.01;47.13;100070.25;1775462;78;21158;-79
2021/05/06 11:49:05;;;;;;;10.38;5.45;;;;;;;21.23;46.44;100071.84;1825330;77;21062;-78
2021/05/06 11:51:44;;;;;;;7.78;5.17;;;;;;;21.12;46.76;100059.08;1824774;77;21137;-77
2021/05/06 11:54:25;;;;;;;6.97;4.40;;;;;;;21.14;46.70;100066.47;1826562;77;21651;-79
2021/05/06 11:56:56;;;;;;;7.00;4.78;;;;;;;21.17;46.43;100066.00;1821883;77;21101;-77
2021/05/06 11:59:28;;;;;;;9.58;4.92;;;;;;;21.18;46.43;100071.73;1834672;77;21137;-78
2021/05/06 12:01:57;;;;;;;7.28;4.70;;;;;;;21.16;46.47;100068.94;1822211;77;21105;-77
2021/05/06 12:04:37;;;;;;;7.97;4.55;;;;;;;21.16;46.52;100062.12;1822420;77;21344;-78
2021/05/06 12:07:24;;;;;;;7.95;5.37;;;;;;;21.18;46.79;100069.02;1819795;77;21093;-78
2021/05/06 12:09:49;;;;;;;9.90;5.72;;;;;;;21.20;46.93;100068.23;1820621;77;21149;-78
2021/05/06 12:12:23;;;;;;;9.98;6.00;;;;;;;21.23;46.86;100071.84;1824853;77;21133;-78
2021/05/06 12:15:01;;;;;;;12.60;6.05;;;;;;;21.25;46.88;100072.42;1825921;77;21093;-78
2021/05/06 12:17:28;;;;;;;10.75;6.60;;;;;;;21.25;46.90;100071.06;1825387;77;21101;-78
2021/05/06 12:19:58;;;;;;;10.82;6.58;;;;;;;21.25;46.88;100062.89;1828345;77;21176;-78
2021/05/06 12:22:27;;;;;;;10.10;5.62;;;;;;;21.26;46.88;100068.66;1822974;77;21234;-77
2021/05/06 12:24:55;;;;;;;11.00;7.55;;;;;;;21.23;46.87;100069.66;1777749;79;21652;-77
2021/05/06 12:27:29;;;;;;;7.12;5.05;;;;;;;21.22;46.71;100065.28;1802546;78;21141;-77
2021/05/06 12:30:05;;;;;;;8.48;5.10;;;;;;;21.20;46.50;100064.14;1794082;79;21137;-78
2021/05/06 12:32:33;;;;;;;8.93;4.97;;;;;;;21.19;46.44;100070.66;1825232;77;21520;-78
2021/05/06 12:35:02;;;;;;;8.00;4.80;;;;;;;21.20;46.08;100077.76;1829941;77;21181;-78
2021/05/06 12:37:31;;;;;;;9.83;4.83;;;;;;;21.21;46.06;100075.36;1816457;77;21219;-77
2021/05/06 12:39:59;;;;;;;7.55;4.95;;;;;;;21.22;46.23;100072.09;1799745;78;21458;-79
2021/05/06 12:42:35;;;;;;;7.17;4.90;;;;;;;21.22;46.34;100074.82;1799907;79;21192;-79
2021/05/06 12:45:17;;;;;;;7.85;5.70;;;;;;;21.23;46.29;100080.02;1793202;79;21191;-77
2021/05/06 12:47:48;;;;;;;8.23;5.37;;;;;;;21.23;46.32;100077.30;1771733;79;21222;-78
2021/05/06 12:50:26;;;;;;;7.85;4.87;;;;;;;21.22;45.91;100072.92;1777381;79;21180;-80
2021/05/06 12:52:56;;;;;;;5.60;4.72;;;;;;;21.21;45.53;100076.72;1795064;79;21553;-78
2021/05/06 12:55:27;;;;;;;7.33;4.90;;;;;;;21.19;45.52;100073.39;1794445;77;21738;-77
2021/05/06 12:58:14;;;;;;;9.43;5.92;;;;;;;21.18;45.23;100076.36;1802472;78;21557;-78
2021/05/06 13:00:57;;;;;;;6.67;5.60;;;;;;;21.16;44.79;100074.39;1777651;78;21686;-78
2021/05/06 13:03:33;;;;;;;6.75;4.72;;;;;;;21.14;44.86;100068.36;1822288;77;21704;-78
2021/05/06 13:06:08;;;;;;;7.28;5.17;;;;;;;21.11;44.79;100066.92;1827677;77;21173;-77
2021/05/06 13:08:41;;;;;;;6.75;5.17;;;;;;;21.10;44.45;100075.34;1813975;77;21121;-78
2021/05/06 13:11:11;;;;;;;7.47;5.90;;;;;;;21.09;44.33;100071.80;1823405;77;21090;-77
2021/05/06 13:13:47;;;;;;;7.15;5.65;;;;;;;21.08;44.58;100072.87;1823502;77;21140;-77
2021/05/06 13:16:16;;;;;;;7.53;5.70;;;;;;;21.06;44.53;100075.52;1797197;78;21138;-80
2021/05/06 13:19:01;;;;;;;8.08;5.35;;;;;;;21.06;44.49;100073.63;1783539;79;21296;-78
2021/05/06 13:21:28;;;;;;;11.90;5.35;;;;;;;21.03;44.38;100072.22;1800890;78;21599;-78
2021/05/06 13:23:56;;;;;;;11.20;7.55;;;;;;;21.01;44.40;100070.78;1796282;77;21731;-79
2021/05/06 13:26:39;;;;;;;11.35;6.42;;;;;;;21.01;44.29;100077.05;1796524;79;21102;-78
2021/05/06 13:29:09;;;;;;;10.98;5.80;;;;;;;20.99;44.47;100077.01;1819175;77;21143;-78
2021/05/06 13:31:41;;;;;;;6.33;5.35;;;;;;;20.96;44.69;100073.39;1824940;77;21070;-79
2021/05/06 13:34:24;;;;;;;9.33;5.58;;;;;;;20.99;44.62;100071.56;1826621;77;21611;-79
2021/05/06 13:37:00;;;;;;;8.53;6.58;;;;;;;21.00;44.67;100078.66;1826542;77;21081;-78
2021/05/06 13:39:27;;;;;;;9.78;7.28;;;;;;;21.02;44.90;100081.42;1775443;79;21152;-78
2021/05/06 13:41:54;;;;;;;8.73;7.22;;;;;;;21.06;44.76;100076.34;1799468;79;21696;-79
2021/05/06 13:44:24;;;;;;;9.65;6.75;;;;;;;21.07;44.45;100082.08;1785898;79;21082;-79
2021/05/06 13:46:55;;;;;;;11.90;6.58;;;;;;;21.08;44.42;100081.04;1786637;79;21090;-79
2021/05/06 13:49:26;;;;;;;8.73;5.90;;;;;;;21.08;44.27;100079.67;1821701;77;21567;-78
2021/05/06 13:51:55;;;;;;;8.43;6.47;;;;;;;21.09;44.11;100082.69;1818930;77;21180;-79
2021/05/06 13:54:23;;;;;;;8.10;6.08;;;;;;;21.12;44.11;100084.09;1819768;77;21226;-78
2021/05/06 13:56:51;;;;;;;7.70;5.40;;;;;;;21.11;44.17;100088.72;1818336;77;21646;-79
2021/05/06 13:59:21;;;;;;;10.70;5.83;;;;;;;21.12;44.28;100082.23;1828108;77;21189;-78
2021/05/06 14:01:56;;;;;;;6.90;5.83;;;;;;;21.10;44.35;100080.80;1774272;79;21188;-78
2021/05/06 14:04:24;;;;;;;8.50;5.72;;;;;;;21.08;44.59;100085.13;1772325;79;21165;-79
2021/05/06 14:06:52;;;;;;;6.58;4.90;;;;;;;21.07;44.53;100082.61;1832176;77;21172;-79
2021/05/06 14:09:20;;;;;;;7.28;5.22;;;;;;;21.06;44.22;100081.79;1834150;77;21077;-78
2021/05/06 14:11:48;;;;;;;8.58;5.30;;;;;;;21.05;44.15;100084.76;1825168;77;21173;-78
2021/05/06 14:14:18;;;;;;;5.00;4.47;;;;;;;21.02;43.97;100079.23;1837383;77;21093;-78
2021/05/06 14:16:45;;;;;;;8.30;5.20;;;;;;;21.01;43.95;100078.95;1834002;77;21121;-78
2021/05/06 14:19:16;;;;;;;6.22;5.28;;;;;;;20.96;43.75;100081.55;1806397;78;21136;-78
2021/05/06 14:21:48;;;;;;;6.22;4.58;;;;;;;20.94;43.86;100079.08;1833248;77;21180;-79
2021/05/06 14:24:16;;;;;;;5.85;4.62;;;;;;;21.06;43.42;100083.69;1824895;77;21204;-78
2021/05/06 14:26:47;;;;;;;5.28;4.67;;;;;;;21.06;43.52;100076.34;1823405;77;21189;-78
2021/05/06 14:29:16;;;;;;;8.48;4.50;;;;;;;21.06;43.77;100074.98;1782194;80;21303;-78
2021/05/06 14:31:43;;;;;;;6.08;4.10;;;;;;;21.09;43.22;100073.69;1759047;80;21185;-79
2021/05/06 14:34:12;;;;;;;6.55;3.62;;;;;;;21.12;42.71;100082.23;1806954;79;21213;-79
2021/05/06 14:36:40;;;;;;;8.83;4.72;;;;;;;21.15;42.56;100079.01;1805366;79;21181;-76
2021/05/06 14:39:08;;;;;;;4.92;4.40;;;;;;;21.18;42.48;100083.99;1758682;80;21357;-80
2021/05/06 14:41:40;;;;;;;6.40;4.17;;;;;;;21.21;42.47;100082.17;1757632;80;21147;-77
2021/05/06 14:44:10;;;;;;;7.03;5.47;;;;;;;21.24;42.13;100084.39;1822773;77;21201;-76
2021/05/06 14:46:37;;;;;;;4.33;3.67;;;;;;;21.25;41.73;100086.05;1827151;77;21379;-78
2021/05/06 14:49:05;;;;;;;6.05;3.05;;;;;;;21.27;41.38;100081.74;1811949;77;21702;-77
2021/05/06 14:51:32;;;;;;;5.58;2.98;;;;;;;21.27;40.98;100081.20;1821360;77;21177;-78
2021/05/06 14:53:59;;;;;;;5.53;2.90;;;;;;;21.29;41.08;100079.06;1809058;77;21172;-78
2021/05/06 14:56:28;;;;;;;1.57;1.47;;;;;;;21.31;40.79;100073.93;1828021;77;21177;-77
2021/05/06 14:58:57;;;;;;;1.60;1.50;;;;;;;21.32;40.40;100068.80;1785238;80;21209;-77
2021/05/06 15:01:25;;;;;;;1.60;1.50;;;;;;;21.29;39.88;100066.80;1781642;78;21228;-78
2021/05/06 15:03:52;;;;;;;2.15;1.65;;;;;;;21.26;39.75;100065.11;1790490;79;22150;-78
2021/05/06 15:06:20;;;;;;;3.08;1.57;;;;;;;21.24;39.91;100061.24;1767377;80;21173;-77
2021/05/06 15:08:49;;;;;;;3.67;1.32;;;;;;;21.24;39.82;100068.59;1795324;78;21201;-77
2021/05/06 15:11:17;;;;;;;3.95;1.40;;;;;;;21.21;39.82;100064.97;1796673;78;21650;-77
2021/05/06 15:13:44;;;;;;;1.67;1.30;;;;;;;21.20;39.70;100073.67;1822328;77;21194;-79
2021/05/06 15:16:13;;;;;;;;;;;;;;;21.18;39.39;100073.09;1828496;77;21159;-79
2021/05/06 15:18:41;;;;;;;1.90;1.10;;;;;;;21.16;39.32;100072.48;1829738;77;20340;-78
2021/05/06 15:21:13;;;;;;;4.22;1.65;;;;;;;21.12;39.42;100075.42;1819221;77;21216;-77
2021/05/06 15:23:41;;;;;;;1.87;1.32;;;;;;;21.09;39.50;100076.42;1831342;77;21231;-79
2021/05/06 15:26:08;;;;;;;;;;;;;;;21.05;39.50;100077.41;1827805;77;21198;-77
2021/05/06 15:28:35;;;;;;;3.45;1.25;;;;;;;21.04;39.37;100075.77;1834256;77;20522;-77
2021/05/06 15:31:04;;;;;;;2.37;1.50;;;;;;;21.00;39.24;100082.20;1831716;77;21683;-78